الصفحة الرئيسية
METAR-TAF:

METAR-TAF

مطار :

مدلاند, تكساس, الولايات المتحدة

دائرة عرض: 32-02-11N, خط طول: 102-06-03W, ارتفاع: 854 متر

مراقبة الطقس الحالي

تاريخ ووقت الإصدار 20 دقيقة قبل الساعة 08:15UTC
رياح هادئة
درجة الحرارة 8°درجة مئوية
الرطوبة 76%
ضغط 1025 hPa
الرؤية: 16.1 كم

METAR: KMDD 210815Z AUTO 00000KT 10SM 08/04 A3028 RMK AO2 T00780040

زمن: 03:35 (08:35 UTC)


TAF: مفقودة

أرصاد الطقس والتوقعات من أكثر من 4000 مطار (تقارير الطقس للمطار METAR والتنبؤ بالطقس بالمطارTAF).

المحطات المتاحة هي النقط الصفراء والحمراء على الخريطة.

حرك المؤشر فوق النقطة لمعرفة اسم المحطة.

ثم انقر لمعرفة أرصاد وتوقعات الطقس.

لتغيير الخارطة: اضغط على الأزرار الخضراء مع رمز الصليب الأسود للتكبير. على الزر الأخضر مع شرطة للتصغير، أو على الأسهم الخضراء للخرائط المجاورة.


METAR-TAF: